createdAt,value
2018-07-11T00:02:24.810Z,15.40
2018-07-11T00:04:53.359Z,15.30
2018-07-11T00:07:21.986Z,15.30
2018-07-11T00:09:51.773Z,15.30
2018-07-11T00:12:23.329Z,15.20
2018-07-11T00:14:52.278Z,15.20
2018-07-11T00:17:22.334Z,15.20
2018-07-11T00:19:52.097Z,15.30
2018-07-11T00:22:20.669Z,15.30
2018-07-11T00:24:49.227Z,15.20
2018-07-11T00:27:17.890Z,15.20
2018-07-11T00:29:46.424Z,15.20
2018-07-11T00:32:15.561Z,15.20
2018-07-11T00:34:44.434Z,15.20
2018-07-11T00:37:13.657Z,15.20
2018-07-11T00:39:42.269Z,15.20
2018-07-11T00:42:10.821Z,15.10
2018-07-11T00:44:39.358Z,15.10
2018-07-11T00:47:07.911Z,15.10
2018-07-11T00:49:36.458Z,15.10
2018-07-11T00:52:05.018Z,14.90
2018-07-11T00:54:33.585Z,14.90
2018-07-11T00:57:02.519Z,14.80
2018-07-11T00:59:32.141Z,14.80
2018-07-11T01:02:06.057Z,14.80
2018-07-11T01:04:35.616Z,14.80
2018-07-11T01:07:06.576Z,14.70
2018-07-11T01:09:40.512Z,14.70
2018-07-11T01:12:09.525Z,14.80
2018-07-11T01:14:38.708Z,14.70
2018-07-11T01:18:12.570Z,14.70
2018-07-11T01:20:41.987Z,14.70
2018-07-11T01:23:11.144Z,14.80
2018-07-11T01:25:39.853Z,14.70
2018-07-11T01:28:11.123Z,14.80
2018-07-11T01:30:40.034Z,14.80
2018-07-11T01:33:08.890Z,14.80
2018-07-11T01:35:37.621Z,14.80
2018-07-11T01:38:06.180Z,14.80
2018-07-11T01:40:35.102Z,14.80
2018-07-11T01:43:04.317Z,14.80
2018-07-11T01:45:32.861Z,14.90
2018-07-11T01:48:01.374Z,14.90
2018-07-11T01:50:29.926Z,14.90
2018-07-11T01:52:59.617Z,14.90
2018-07-11T01:55:28.704Z,15.00
2018-07-11T01:58:00.529Z,15.00
2018-07-11T02:00:30.713Z,14.90
2018-07-11T02:03:00.471Z,14.90
2018-07-11T02:05:29.055Z,14.90
2018-07-11T02:07:58.164Z,14.80
2018-07-11T02:10:27.218Z,14.70
2018-07-11T02:12:56.725Z,14.70
2018-07-11T02:15:26.377Z,14.70
2018-07-11T02:17:55.534Z,14.80
2018-07-11T02:20:27.586Z,14.70
2018-07-11T02:23:06.627Z,14.80
2018-07-11T02:25:47.015Z,14.80
2018-07-11T02:28:43.678Z,14.80
2018-07-11T02:31:39.381Z,14.80
2018-07-11T02:34:47.240Z,14.80
2018-07-11T02:44:10.893Z,14.70
2018-07-11T03:06:26.185Z,14.60
2018-07-11T03:09:08.279Z,14.60
2018-07-11T03:11:37.224Z,14.60
2018-07-11T03:25:17.234Z,14.60
2018-07-11T03:27:48.660Z,14.50
2018-07-11T03:33:17.672Z,14.60
2018-07-11T03:36:11.836Z,14.70
2018-07-11T03:55:05.195Z,14.70
2018-07-11T03:57:34.942Z,14.80
2018-07-11T04:00:08.773Z,14.70
2018-07-11T04:02:39.076Z,14.70
2018-07-11T04:05:08.940Z,14.70
2018-07-11T04:07:39.305Z,14.70
2018-07-11T04:10:08.218Z,14.70
2018-07-11T04:12:37.709Z,14.70
2018-07-11T04:15:47.257Z,14.60
2018-07-11T04:18:32.145Z,14.60
2018-07-11T04:21:49.543Z,14.60
2018-07-11T04:24:18.786Z,14.70
2018-07-11T04:26:47.342Z,14.60
2018-07-11T04:29:15.893Z,14.60
2018-07-11T04:31:44.416Z,14.60
2018-07-11T04:34:12.966Z,14.70
2018-07-11T04:36:41.517Z,14.60
2018-07-11T04:39:10.205Z,14.60
2018-07-11T04:42:22.941Z,14.60
2018-07-11T04:44:51.652Z,14.60
2018-07-11T04:47:20.886Z,14.70
2018-07-11T04:49:49.481Z,14.70
2018-07-11T04:52:18.076Z,14.70
2018-07-11T04:54:50.215Z,14.80
2018-07-11T04:57:20.077Z,14.80
2018-07-11T04:59:49.343Z,14.80
2018-07-11T05:02:17.967Z,14.80
2018-07-11T05:04:46.871Z,14.90
2018-07-11T05:07:16.430Z,14.80
2018-07-11T05:09:44.975Z,14.90
2018-07-11T05:12:13.841Z,14.90
2018-07-11T05:14:44.233Z,14.90
2018-07-11T05:17:13.218Z,14.90
2018-07-11T05:19:42.492Z,14.90
2018-07-11T05:22:11.035Z,14.90
2018-07-11T05:24:39.589Z,14.90
2018-07-11T05:27:08.477Z,15.00
2018-07-11T05:29:37.630Z,15.00
2018-07-11T05:32:06.348Z,15.00
2018-07-11T05:34:35.231Z,15.10
2018-07-11T05:37:04.695Z,15.10
2018-07-11T05:39:34.653Z,15.10
2018-07-11T05:42:03.217Z,15.20
2018-07-11T05:44:32.404Z,15.20
2018-07-11T05:47:04.902Z,15.30
2018-07-11T05:49:34.322Z,15.30
2018-07-11T05:52:03.752Z,15.20
2018-07-11T05:54:33.645Z,15.30
2018-07-11T05:57:03.417Z,15.20
2018-07-11T05:59:31.924Z,15.30
2018-07-11T06:02:01.262Z,15.30
2018-07-11T06:04:29.749Z,15.30
2018-07-11T06:06:58.287Z,15.30
2018-07-11T06:09:27.180Z,15.40
2018-07-11T06:11:56.740Z,15.40
2018-07-11T06:14:25.267Z,15.50
2018-07-11T06:16:54.423Z,15.50
2018-07-11T06:19:23.277Z,15.60
2018-07-11T06:21:51.884Z,15.70
2018-07-11T06:24:20.957Z,15.70
2018-07-11T06:26:49.780Z,15.80
2018-07-11T06:29:18.289Z,15.70
2018-07-11T06:31:47.177Z,15.70
2018-07-11T06:34:16.799Z,15.80
2018-07-11T06:36:45.326Z,15.80
2018-07-11T06:39:13.913Z,15.90
2018-07-11T06:41:42.552Z,16.00
2018-07-11T06:44:11.390Z,16.10
2018-07-11T06:46:40.268Z,16.10
2018-07-11T06:49:09.322Z,16.20
2018-07-11T06:51:38.173Z,16.30
2018-07-11T06:54:07.622Z,16.30
2018-07-11T06:56:36.818Z,16.50
2018-07-11T06:59:05.962Z,16.60
2018-07-11T07:01:35.669Z,16.70
2018-07-11T07:04:05.385Z,16.80
2018-07-11T07:06:35.207Z,16.90
2018-07-11T07:09:05.041Z,17.00
2018-07-11T07:11:34.250Z,17.10
2018-07-11T07:14:03.808Z,17.10
2018-07-11T07:16:33.475Z,17.00
2018-07-11T07:19:02.843Z,17.10
2018-07-11T07:21:32.431Z,17.20
2018-07-11T07:24:01.658Z,17.20
2018-07-11T07:26:30.949Z,17.30
2018-07-11T07:29:00.078Z,17.40
2018-07-11T07:31:29.415Z,17.40
2018-07-11T07:34:02.410Z,17.40
2018-07-11T07:36:35.079Z,17.40
2018-07-11T07:39:04.638Z,17.40
2018-07-11T07:41:33.486Z,17.50
2018-07-11T07:44:03.229Z,17.50
2018-07-11T07:46:32.733Z,17.50
2018-07-11T07:49:04.597Z,17.50
2018-07-11T07:51:33.133Z,17.60
2018-07-11T07:54:02.282Z,17.70
2018-07-11T07:56:31.313Z,17.90
2018-07-11T07:58:59.793Z,18.00
2018-07-11T08:01:28.306Z,18.00
2018-07-11T08:03:57.142Z,18.20
2018-07-11T08:06:26.054Z,18.20
2018-07-11T08:08:56.488Z,18.30
2018-07-11T08:11:26.671Z,18.30
2018-07-11T08:13:55.184Z,18.50
2018-07-11T08:16:23.700Z,18.60
2018-07-11T08:18:52.552Z,18.70
2018-07-11T08:21:21.401Z,19.00
2018-07-11T08:24:02.414Z,19.00
2018-07-11T08:26:42.243Z,19.10
2018-07-11T08:29:56.285Z,19.30
2018-07-11T08:32:35.392Z,19.30
2018-07-11T08:35:15.339Z,19.40
2018-07-11T08:37:53.883Z,19.50
2018-07-11T08:40:33.316Z,19.90
2018-07-11T08:43:20.874Z,20.10
2018-07-11T08:47:05.034Z,20.10
2018-07-11T08:49:46.613Z,20.10
2018-07-11T08:54:33.931Z,19.70
2018-07-11T08:57:29.757Z,19.60
2018-07-11T09:00:13.230Z,19.60
2018-07-11T09:02:55.666Z,19.90
2018-07-11T09:05:36.631Z,20.20
2018-07-11T09:10:27.332Z,20.40
2018-07-11T09:13:07.310Z,20.50
2018-07-11T09:15:45.500Z,20.70
2018-07-11T09:18:24.382Z,20.60
2018-07-11T09:23:14.257Z,20.40
2018-07-11T09:25:42.761Z,20.50
2018-07-11T09:28:11.538Z,20.30
2018-07-11T09:30:40.409Z,20.30
2018-07-11T09:33:09.214Z,20.40
2018-07-11T09:35:38.050Z,20.40
2018-07-11T09:38:06.948Z,20.40
2018-07-11T09:40:35.456Z,20.20
2018-07-11T09:43:03.941Z,20.20
2018-07-11T09:45:32.851Z,20.20
2018-07-11T09:48:01.511Z,20.20
2018-07-11T09:50:30.049Z,20.30
2018-07-11T09:52:58.550Z,20.20
2018-07-11T09:55:27.056Z,20.20
2018-07-11T09:57:55.788Z,20.30
2018-07-11T10:00:29.972Z,20.10
2018-07-11T10:02:58.767Z,20.10
2018-07-11T10:05:27.287Z,20.10
2018-07-11T10:07:55.765Z,20.30
2018-07-11T10:10:24.278Z,20.30
2018-07-11T10:12:53.164Z,20.50
2018-07-11T10:15:22.371Z,20.60
2018-07-11T10:17:50.895Z,20.60
2018-07-11T10:20:19.713Z,20.50
2018-07-11T10:22:48.411Z,20.50
2018-07-11T10:25:17.251Z,20.60
2018-07-11T10:27:45.765Z,20.60
2018-07-11T10:30:14.619Z,20.60
2018-07-11T10:32:43.993Z,20.80
2018-07-11T10:35:12.498Z,20.90
2018-07-11T10:37:41.363Z,20.90
2018-07-11T10:40:10.216Z,21.00
2018-07-11T10:42:38.865Z,21.00
2018-07-11T10:45:07.686Z,21.00
2018-07-11T10:47:36.683Z,21.10
2018-07-11T10:50:05.520Z,21.30
2018-07-11T10:52:34.873Z,21.50
2018-07-11T10:55:03.377Z,21.60
2018-07-11T10:57:33.384Z,21.60
2018-07-11T11:00:02.026Z,21.80
2018-07-11T11:02:30.812Z,21.80
2018-07-11T11:05:00.509Z,21.90
2018-07-11T11:07:29.348Z,22.00
2018-07-11T11:09:57.895Z,22.10
2018-07-11T11:12:26.403Z,22.10
2018-07-11T11:14:55.228Z,21.90
2018-07-11T11:17:24.077Z,22.10
2018-07-11T11:19:52.909Z,22.20
2018-07-11T11:22:21.789Z,21.90
2018-07-11T11:24:50.653Z,22.10
2018-07-11T11:27:20.077Z,22.10
2018-07-11T11:29:48.945Z,22.20
2018-07-11T11:32:18.641Z,22.30
2018-07-11T11:34:47.162Z,22.40
2018-07-11T11:37:15.706Z,22.20
2018-07-11T11:39:44.530Z,22.30
2018-07-11T11:42:14.609Z,22.30
2018-07-11T11:44:43.009Z,22.30
2018-07-11T11:47:11.549Z,22.30
2018-07-11T11:49:40.701Z,22.30
2018-07-11T11:52:09.520Z,22.30
2018-07-11T11:54:38.025Z,22.30
2018-07-11T11:57:08.213Z,22.30
2018-07-11T11:59:37.425Z,22.40
2018-07-11T12:02:05.955Z,22.40
2018-07-11T12:04:34.490Z,22.50
2018-07-11T12:07:03.783Z,22.60
2018-07-11T12:09:33.573Z,22.50
2018-07-11T12:12:03.436Z,22.50
2018-07-11T12:14:33.103Z,22.50
2018-07-11T12:17:02.029Z,22.60
2018-07-11T12:19:30.578Z,22.60
2018-07-11T12:21:59.061Z,22.60
2018-07-11T12:24:27.569Z,22.70
2018-07-11T12:26:56.102Z,22.80
2018-07-11T12:29:24.628Z,22.80
2018-07-11T12:31:53.813Z,22.90
2018-07-11T12:34:22.544Z,22.80
2018-07-11T12:36:52.624Z,22.80
2018-07-11T12:39:21.177Z,22.90
2018-07-11T12:41:49.885Z,23.00
2018-07-11T12:44:19.365Z,23.00
2018-07-11T12:46:48.871Z,23.00
2018-07-11T12:49:17.577Z,22.90
2018-07-11T12:51:46.629Z,22.90
2018-07-11T12:54:15.156Z,22.80
2018-07-11T12:56:44.458Z,22.80
2018-07-11T12:59:12.989Z,22.70
2018-07-11T13:01:41.518Z,22.70
2018-07-11T13:04:10.033Z,22.70
2018-07-11T13:06:38.546Z,22.80
2018-07-11T13:09:08.061Z,22.80
2018-07-11T13:11:36.950Z,22.80
2018-07-11T13:14:06.428Z,22.80
2018-07-11T13:16:34.947Z,22.80
2018-07-11T13:19:03.508Z,22.60
2018-07-11T13:21:32.019Z,22.50
2018-07-11T13:24:00.536Z,22.30
2018-07-11T13:26:30.440Z,22.30
2018-07-11T13:29:00.256Z,22.20
2018-07-11T13:31:29.113Z,22.20
2018-07-11T13:33:58.018Z,22.20
2018-07-11T13:36:26.525Z,22.20
2018-07-11T13:38:55.695Z,22.20
2018-07-11T13:41:24.199Z,22.20
2018-07-11T13:43:54.588Z,22.10
2018-07-11T13:46:23.462Z,22.10
2018-07-11T13:48:52.649Z,22.10
2018-07-11T13:51:23.289Z,22.10
2018-07-11T13:53:51.895Z,21.90
2018-07-11T13:56:20.439Z,21.90
2018-07-11T13:58:48.952Z,21.90
2018-07-11T14:01:18.451Z,21.90
2018-07-11T14:03:50.271Z,21.90
2018-07-11T14:06:18.789Z,21.90
2018-07-11T14:08:47.953Z,21.60
2018-07-11T14:11:16.510Z,21.60
2018-07-11T14:13:45.066Z,21.50
2018-07-11T14:16:13.752Z,21.50
2018-07-11T14:18:43.897Z,21.40
2018-07-11T14:21:12.718Z,21.20
2018-07-11T14:23:42.233Z,21.10
2018-07-11T14:26:13.825Z,21.10
2018-07-11T14:28:51.592Z,20.90
2018-07-11T14:31:30.882Z,20.80
2018-07-11T14:34:01.095Z,20.50
2018-07-11T14:36:30.259Z,20.10
2018-07-11T14:38:58.793Z,19.90
2018-07-11T14:41:27.361Z,19.70
2018-07-11T14:43:57.666Z,19.60
2018-07-11T14:46:27.623Z,19.40
2018-07-11T14:48:56.289Z,19.30
2018-07-11T14:51:25.412Z,19.20
2018-07-11T14:53:55.506Z,19.00
2018-07-11T14:56:24.761Z,18.80
2018-07-11T14:58:56.086Z,18.60
2018-07-11T15:01:25.170Z,18.60
2018-07-11T15:03:53.988Z,18.60
2018-07-11T15:06:23.388Z,18.50
2018-07-11T15:08:52.605Z,18.50
2018-07-11T15:11:22.012Z,18.40
2018-07-11T15:13:51.467Z,18.40
2018-07-11T15:16:20.694Z,18.50
2018-07-11T15:18:50.118Z,18.50
2018-07-11T15:21:20.488Z,18.60
2018-07-11T15:23:49.388Z,18.60
2018-07-11T15:26:18.109Z,18.60
2018-07-11T15:28:47.632Z,18.60
2018-07-11T15:31:16.437Z,18.50
2018-07-11T15:33:46.265Z,18.70
2018-07-11T15:36:15.791Z,18.60
2018-07-11T15:38:46.669Z,18.60
2018-07-11T15:41:17.118Z,18.60
2018-07-11T15:43:46.717Z,18.60
2018-07-11T15:46:15.661Z,18.60
2018-07-11T15:48:45.915Z,18.50
2018-07-11T15:51:14.457Z,18.40
2018-07-11T15:53:48.017Z,18.40
2018-07-11T15:56:17.766Z,18.30
2018-07-11T15:58:51.228Z,18.30
2018-07-11T16:01:20.045Z,18.30
2018-07-11T16:03:49.754Z,18.30
2018-07-11T16:06:23.279Z,18.30
2018-07-11T16:08:55.725Z,18.20
2018-07-11T16:11:25.607Z,18.30
2018-07-11T16:13:56.259Z,18.40
2018-07-11T16:16:25.827Z,18.50
2018-07-11T16:18:55.756Z,18.40
2018-07-11T16:21:25.624Z,18.50
2018-07-11T16:23:54.397Z,18.40
2018-07-11T16:26:22.932Z,18.10
2018-07-11T16:28:52.698Z,18.20
2018-07-11T16:31:21.246Z,18.20
2018-07-11T16:33:50.977Z,18.30
2018-07-11T16:36:20.873Z,18.50
2018-07-11T16:38:50.877Z,18.40
2018-07-11T16:41:19.747Z,18.40
2018-07-11T16:43:48.266Z,18.20
2018-07-11T16:46:19.030Z,18.30
2018-07-11T16:48:47.534Z,18.30
2018-07-11T16:51:16.111Z,18.40
2018-07-11T16:53:46.170Z,18.30
2018-07-11T16:56:16.205Z,18.30
2018-07-11T16:58:51.665Z,18.50
2018-07-11T17:01:23.546Z,18.60
2018-07-11T17:03:52.133Z,18.70
2018-07-11T17:06:20.873Z,18.60
2018-07-11T17:08:50.910Z,18.70
2018-07-11T17:11:24.614Z,18.70
2018-07-11T17:14:01.110Z,18.70
2018-07-11T17:16:46.881Z,18.70
2018-07-11T17:19:23.390Z,18.70
2018-07-11T17:21:51.945Z,18.70
2018-07-11T17:24:21.673Z,18.80
2018-07-11T17:26:51.262Z,18.80
2018-07-11T17:29:24.991Z,18.80
2018-07-11T17:31:58.769Z,18.80
2018-07-11T17:34:27.265Z,18.80
2018-07-11T17:37:04.858Z,18.80
2018-07-11T17:39:45.162Z,18.80
2018-07-11T17:42:17.560Z,18.70
2018-07-11T17:44:51.018Z,18.70
2018-07-11T17:47:23.738Z,18.70
2018-07-11T17:50:21.691Z,18.70
2018-07-11T17:53:29.275Z,18.70
2018-07-11T17:56:24.455Z,18.80
2018-07-11T18:05:32.254Z,18.60
2018-07-11T18:08:09.718Z,18.50
2018-07-11T18:10:44.769Z,18.50
2018-07-11T18:13:25.213Z,18.40
2018-07-11T18:16:36.442Z,18.50
2018-07-11T18:21:17.797Z,18.50
2018-07-11T18:31:13.926Z,18.50
2018-07-11T18:38:17.524Z,18.50
2018-07-11T18:41:08.487Z,18.30
2018-07-11T18:48:46.787Z,18.30
2018-07-11T18:51:30.809Z,18.20
2018-07-11T18:54:13.353Z,18.20
2018-07-11T18:56:58.757Z,18.20
2018-07-11T19:00:16.071Z,18.20
2018-07-11T19:04:05.422Z,18.30
2018-07-11T19:07:41.403Z,18.20
2018-07-11T19:10:16.190Z,18.10
2018-07-11T19:12:55.083Z,18.10
2018-07-11T19:15:36.394Z,18.10
2018-07-11T19:18:15.281Z,18.00
2018-07-11T19:23:01.021Z,17.90
2018-07-11T19:25:40.224Z,17.90
2018-07-11T19:28:17.382Z,17.90
2018-07-11T19:31:04.304Z,17.80
2018-07-11T19:33:47.645Z,17.80
2018-07-11T19:38:33.720Z,17.80
2018-07-11T19:41:23.880Z,17.80
2018-07-11T19:46:55.370Z,17.70
2018-07-11T19:49:59.930Z,17.70
2018-07-11T19:52:45.464Z,17.70
2018-07-11T19:55:44.669Z,17.60
2018-07-11T19:58:18.546Z,17.60
2018-07-11T20:00:47.711Z,17.60
2018-07-11T20:03:16.480Z,17.50
2018-07-11T20:05:53.345Z,17.50
2018-07-11T20:08:14.879Z,17.40
2018-07-11T20:10:43.750Z,17.40
2018-07-11T20:13:12.810Z,17.40
2018-07-11T20:15:41.330Z,17.40
2018-07-11T20:18:10.555Z,17.30
2018-07-11T20:20:39.589Z,17.30
2018-07-11T20:23:09.014Z,17.30
2018-07-11T20:25:38.708Z,17.30
2018-07-11T20:28:07.272Z,17.30
2018-07-11T20:30:35.787Z,17.30
2018-07-11T20:33:05.382Z,17.20
2018-07-11T20:35:34.626Z,17.10
2018-07-11T20:38:07.383Z,17.20
2018-07-11T20:40:35.986Z,17.20
2018-07-11T20:43:05.283Z,17.20
2018-07-11T20:45:34.509Z,17.20
2018-07-11T20:48:03.040Z,17.20
2018-07-11T20:50:35.128Z,17.20
2018-07-11T20:53:03.748Z,17.20
2018-07-11T20:55:32.477Z,17.10
2018-07-11T20:58:13.233Z,17.10
2018-07-11T21:00:53.058Z,17.10
2018-07-11T21:04:34.238Z,17.10
2018-07-11T21:09:18.973Z,17.10
2018-07-11T21:12:33.434Z,17.10
2018-07-11T21:15:16.801Z,17.10
2018-07-11T21:22:06.033Z,17.10
2018-07-11T21:24:35.759Z,17.20
2018-07-11T21:27:04.350Z,17.10
2018-07-11T21:29:34.783Z,17.10
2018-07-11T21:32:06.030Z,17.10
2018-07-11T21:34:36.001Z,17.10
2018-07-11T21:37:05.238Z,17.10
2018-07-11T21:39:40.901Z,17.10
2018-07-11T21:42:10.385Z,17.10
2018-07-11T21:44:40.066Z,17.00
2018-07-11T21:47:09.595Z,17.00
2018-07-11T21:49:38.438Z,17.00
2018-07-11T21:52:08.705Z,17.00
2018-07-11T21:54:38.173Z,17.00
2018-07-11T21:57:07.345Z,17.00
2018-07-11T21:59:35.857Z,17.00
2018-07-11T22:02:04.721Z,17.00
2018-07-11T22:04:33.546Z,17.00
2018-07-11T22:07:03.300Z,17.00
2018-07-11T22:09:32.348Z,17.00
2018-07-11T22:12:03.131Z,17.00
2018-07-11T22:14:49.048Z,17.00
2018-07-11T22:17:32.090Z,17.00
2018-07-11T22:20:01.180Z,17.00
2018-07-11T22:22:35.617Z,17.00
2018-07-11T22:25:09.439Z,16.90
2018-07-11T22:33:03.217Z,16.90
2018-07-11T22:35:30.766Z,16.80
2018-07-11T22:37:59.879Z,16.80
2018-07-11T22:40:28.479Z,16.70
2018-07-11T22:42:56.066Z,16.70
2018-07-11T22:45:23.651Z,16.60
2018-07-11T22:47:51.218Z,16.60
2018-07-11T22:50:19.742Z,16.60
2018-07-11T22:52:47.874Z,16.60
2018-07-11T22:55:15.438Z,16.50
2018-07-11T22:57:43.303Z,16.50
2018-07-11T23:00:10.875Z,16.50
2018-07-11T23:02:38.486Z,16.50
2018-07-11T23:05:06.358Z,16.40
2018-07-11T23:07:33.991Z,16.30
2018-07-11T23:10:01.557Z,16.20
2018-07-11T23:12:30.906Z,16.20
2018-07-11T23:14:58.989Z,16.20
2018-07-11T23:17:26.549Z,16.20
2018-07-11T23:19:54.109Z,16.20
2018-07-11T23:22:22.619Z,16.20
2018-07-11T23:24:50.161Z,16.20
2018-07-11T23:27:17.726Z,16.20
2018-07-11T23:29:45.266Z,16.20
2018-07-11T23:32:12.818Z,16.20
2018-07-11T23:34:40.382Z,16.20
2018-07-11T23:37:07.933Z,16.20
2018-07-11T23:39:35.489Z,16.20
2018-07-11T23:42:03.041Z,16.20
2018-07-11T23:44:30.608Z,16.10
2018-07-11T23:46:58.163Z,16.10
2018-07-11T23:49:25.729Z,16.20
2018-07-11T23:51:54.185Z,16.20
2018-07-11T23:54:21.753Z,16.10
2018-07-11T23:56:49.313Z,16.10
2018-07-11T23:59:17.652Z,16.00
